Time;durP1;ratioP1;P1;durP2;ratioP2;P2;SDS_P1;SDS_P2;PMS_P1;PMS_P2;Temp;Humidity;BMP_temperature;BMP_pressure;BME280_temperature;BME280_humidity;BME280_pressure;Samples;Min_cycle;Max_cycle;Signal;HPM_P1;HPM_P2
2021/08/20 00:00:30;;;;;;;12.10;6.10;;;;;;;16.72;76.91;100604.02;1680850;84;21116;-59
2021/08/20 00:02:57;;;;;;;11.55;5.87;;;;;;;16.74;76.86;100604.28;1667753;83;21125;-59
2021/08/20 00:05:24;;;;;;;10.35;6.30;;;;;;;16.76;76.93;100598.28;1672354;83;20965;-58
2021/08/20 00:07:51;;;;;;;10.18;6.28;;;;;;;16.82;76.91;100606.50;1676506;83;21131;-58
2021/08/20 00:10:19;;;;;;;12.43;5.90;;;;;;;16.84;76.73;100595.09;1684818;83;21096;-58
2021/08/20 00:12:47;;;;;;;9.53;5.58;;;;;;;16.83;76.72;100590.64;1669139;84;22263;-59
2021/08/20 00:15:15;;;;;;;10.65;5.80;;;;;;;16.84;76.78;100600.50;1679627;84;21063;-57
2021/08/20 00:17:43;;;;;;;11.15;5.78;;;;;;;16.81;76.84;100591.23;1660321;84;21073;-57
2021/08/20 00:20:13;;;;;;;10.43;5.97;;;;;;;16.78;76.95;100599.55;1680588;83;21089;-58
2021/08/20 00:22:41;;;;;;;10.00;6.03;;;;;;;16.78;77.03;100602.26;1680693;83;21036;-58
2021/08/20 00:25:14;;;;;;;9.98;5.95;;;;;;;16.77;77.08;100605.94;1676363;84;21016;-59
2021/08/20 00:27:42;;;;;;;12.45;5.90;;;;;;;16.75;77.18;100600.61;1686045;83;21015;-59
2021/08/20 00:30:12;;;;;;;15.38;6.12;;;;;;;16.76;77.23;100594.72;1685353;84;21774;-58
2021/08/20 00:32:41;;;;;;;11.80;6.42;;;;;;;16.75;77.24;100587.06;1681812;83;21225;-60
2021/08/20 00:35:11;;;;;;;11.35;5.90;;;;;;;16.79;77.23;100589.11;1687844;84;21131;-58
2021/08/20 00:37:37;;;;;;;10.58;6.33;;;;;;;16.81;77.11;100593.94;1679580;84;21030;-58
2021/08/20 00:40:06;;;;;;;18.87;6.25;;;;;;;16.85;77.06;100594.62;1650179;84;21115;-59
2021/08/20 00:42:34;;;;;;;16.48;6.55;;;;;;;16.87;77.03;100593.53;1664243;84;21120;-58
2021/08/20 00:45:01;;;;;;;22.75;8.73;;;;;;;16.90;77.00;100596.05;1680434;84;22286;-58
2021/08/20 00:47:31;;;;;;;10.85;6.03;;;;;;;16.92;77.01;100593.75;1677869;83;21106;-58
2021/08/20 00:50:05;;;;;;;9.50;6.03;;;;;;;16.92;76.99;100591.05;1690064;83;21037;-58
2021/08/20 00:52:34;;;;;;;12.10;6.03;;;;;;;16.93;76.93;100592.78;1688529;83;21873;-58
2021/08/20 00:55:03;;;;;;;10.32;6.20;;;;;;;16.93;76.94;100586.02;1660997;85;20976;-57
2021/08/20 00:57:32;;;;;;;9.93;6.37;;;;;;;16.93;76.83;100590.92;1656192;84;22173;-59
2021/08/20 00:59:58;;;;;;;8.60;5.85;;;;;;;16.94;76.73;100590.45;1672949;84;21155;-58
2021/08/20 01:02:26;;;;;;;10.63;6.10;;;;;;;16.94;76.73;100601.28;1678357;83;21102;-58
2021/08/20 01:04:54;;;;;;;14.45;6.83;;;;;;;16.93;76.62;100603.61;1678906;83;22112;-57
2021/08/20 01:07:23;;;;;;;12.63;6.28;;;;;;;16.90;76.57;100597.89;1685673;83;21701;-60
2021/08/20 01:09:51;;;;;;;11.00;6.60;;;;;;;16.90;76.62;100603.31;1690653;83;21696;-59
2021/08/20 01:12:19;;;;;;;14.60;6.75;;;;;;;16.89;76.62;100599.72;1680558;83;21083;-59
2021/08/20 01:14:52;;;;;;;10.50;6.28;;;;;;;16.87;76.66;100600.30;1678444;84;20949;-58
2021/08/20 01:17:19;;;;;;;9.55;6.58;;;;;;;16.85;76.75;100600.89;1683398;83;21170;-60
2021/08/20 01:19:49;;;;;;;10.13;6.45;;;;;;;16.83;76.78;100597.41;1682837;83;20940;-59
2021/08/20 01:22:16;;;;;;;10.25;6.08;;;;;;;16.81;76.82;100595.80;1681746;83;21150;-58
2021/08/20 01:24:49;;;;;;;13.55;6.60;;;;;;;16.76;76.87;100592.87;1655175;84;21038;-58
2021/08/20 01:27:20;;;;;;;11.60;6.17;;;;;;;16.75;76.93;100597.05;1680598;83;21516;-59
2021/08/20 01:29:50;;;;;;;14.13;6.80;;;;;;;16.71;77.04;100598.21;1667488;83;21479;-59
2021/08/20 01:32:18;;;;;;;16.05;6.92;;;;;;;16.68;77.11;100590.26;1685550;83;20985;-59
2021/08/20 01:34:46;;;;;;;16.17;6.40;;;;;;;16.66;77.15;100593.55;1685413;83;21068;-59
2021/08/20 01:37:16;;;;;;;11.68;5.87;;;;;;;16.64;77.21;100586.02;1684423;83;21104;-60
2021/08/20 01:39:44;;;;;;;10.10;5.75;;;;;;;16.63;77.36;100586.52;1682221;84;20967;-58
2021/08/20 01:42:14;;;;;;;11.75;5.90;;;;;;;16.63;77.43;100595.09;1682457;83;21822;-58
2021/08/20 01:44:41;;;;;;;11.48;5.87;;;;;;;16.59;77.52;100599.36;1686157;83;21139;-58
2021/08/20 01:47:11;;;;;;;11.90;5.70;;;;;;;16.58;77.43;100596.27;1679228;83;21041;-58
2021/08/20 01:49:41;;;;;;;10.85;6.50;;;;;;;16.54;77.58;100594.72;1691872;83;21131;-58
2021/08/20 01:52:10;;;;;;;10.18;6.30;;;;;;;16.54;77.69;100592.02;1684320;83;21116;-58
2021/08/20 01:54:38;;;;;;;12.43;6.08;;;;;;;16.53;77.76;100591.63;1679909;83;21834;-58
2021/08/20 01:57:07;;;;;;;10.15;5.85;;;;;;;16.53;77.80;100592.09;1679930;83;21134;-58
2021/08/20 01:59:35;;;;;;;10.43;6.25;;;;;;;16.53;77.84;100592.98;1678927;84;21410;-58
2021/08/20 02:02:04;;;;;;;11.28;6.47;;;;;;;16.53;78.00;100579.45;1686059;83;21024;-58
2021/08/20 02:04:31;;;;;;;17.15;6.72;;;;;;;16.54;78.13;100578.48;1677025;83;21033;-61
2021/08/20 02:07:01;;;;;;;10.95;6.03;;;;;;;16.57;78.15;100580.11;1684980;83;21594;-59
2021/08/20 02:09:28;;;;;;;14.38;6.47;;;;;;;16.57;78.04;100585.05;1684984;83;21151;-60
2021/08/20 02:11:56;;;;;;;17.25;6.70;;;;;;;16.54;77.88;100582.55;1685991;83;22217;-58
2021/08/20 02:14:25;;;;;;;13.72;6.92;;;;;;;16.51;77.87;100579.16;1666376;83;21326;-59
2021/08/20 02:16:53;;;;;;;15.60;7.10;;;;;;;16.49;77.96;100587.86;1658985;83;21080;-60
2021/08/20 02:19:25;;;;;;;10.50;5.83;;;;;;;16.46;78.00;100578.08;1683776;83;21535;-58
2021/08/20 02:21:52;;;;;;;12.53;6.92;;;;;;;16.44;78.08;100584.96;1685858;83;21280;-59
2021/08/20 02:24:23;;;;;;;11.90;6.30;;;;;;;16.43;77.98;100589.10;1640789;85;21103;-58
2021/08/20 02:26:52;;;;;;;10.63;6.17;;;;;;;16.40;77.87;100585.23;1643547;85;21067;-59
2021/08/20 02:29:21;;;;;;;13.10;6.40;;;;;;;16.38;77.96;100586.70;1584836;87;21535;-59
2021/08/20 02:31:48;;;;;;;11.80;6.67;;;;;;;16.36;77.96;100587.75;1649638;85;21119;-59
2021/08/20 02:34:15;;;;;;;16.25;7.10;;;;;;;16.32;78.10;100590.66;1636873;86;22127;-59
2021/08/20 02:36:42;;;;;;;13.28;6.83;;;;;;;16.30;78.18;100593.94;1629701;86;21164;-59
2021/08/20 02:39:10;;;;;;;12.33;7.15;;;;;;;16.28;78.28;100590.92;1603825;86;21109;-58
2021/08/20 02:41:38;;;;;;;15.38;7.50;;;;;;;16.22;78.40;100589.45;1686192;83;21096;-58
2021/08/20 02:44:05;;;;;;;14.33;7.20;;;;;;;16.18;78.57;100587.45;1679200;84;21593;-59
2021/08/20 02:46:33;;;;;;;14.03;7.67;;;;;;;16.15;78.75;100588.11;1681954;83;21199;-59
2021/08/20 02:49:01;;;;;;;12.55;6.53;;;;;;;16.13;78.95;100593.59;1677352;84;21164;-58
2021/08/20 02:51:27;;;;;;;15.30;7.33;;;;;;;16.12;79.17;100599.12;1685808;83;21146;-58
2021/08/20 02:53:58;;;;;;;18.35;7.62;;;;;;;16.09;79.27;100600.66;1685724;83;21048;-58
2021/08/20 02:56:26;;;;;;;14.05;7.70;;;;;;;16.07;79.45;100605.30;1663119;84;21371;-58
2021/08/20 02:58:55;;;;;;;18.10;7.78;;;;;;;16.04;79.55;100603.63;1677231;84;21489;-58
2021/08/20 03:01:22;;;;;;;15.95;7.75;;;;;;;16.02;79.63;100610.47;1681657;84;21050;-58
2021/08/20 03:03:49;;;;;;;16.12;7.47;;;;;;;16.00;79.71;100609.70;1681964;84;21489;-58
2021/08/20 03:06:19;;;;;;;16.65;6.85;;;;;;;15.97;79.88;100611.23;1687095;84;21604;-58
2021/08/20 03:08:49;;;;;;;12.28;6.78;;;;;;;15.93;80.06;100609.69;1680137;84;21138;-58
2021/08/20 03:11:17;;;;;;;14.78;6.60;;;;;;;15.90;80.29;100609.38;1680868;83;21101;-58
2021/08/20 03:13:45;;;;;;;13.32;7.30;;;;;;;15.88;80.46;100609.06;1690887;83;21112;-58
2021/08/20 03:16:14;;;;;;;15.25;7.17;;;;;;;15.86;80.64;100605.09;1685631;84;21048;-59
2021/08/20 03:18:43;;;;;;;15.05;7.22;;;;;;;15.86;80.80;100611.00;1674729;83;21178;-58
2021/08/20 03:21:12;;;;;;;11.53;6.35;;;;;;;15.85;81.02;100607.41;1684170;83;21900;-58
2021/08/20 03:23:43;;;;;;;12.00;6.90;;;;;;;15.84;81.02;100603.46;1681572;83;21092;-59
2021/08/20 03:26:12;;;;;;;14.28;6.85;;;;;;;15.84;81.00;100600.26;1679144;84;21486;-58
2021/08/20 03:28:42;;;;;;;11.38;6.40;;;;;;;15.82;81.09;100610.80;1685120;84;21071;-58
2021/08/20 03:31:09;;;;;;;10.38;6.50;;;;;;;15.79;81.33;100608.24;1687776;83;21688;-58
2021/08/20 03:33:37;;;;;;;14.50;6.90;;;;;;;15.78;81.53;100613.27;1682424;83;21226;-59
2021/08/20 03:36:05;;;;;;;11.28;6.78;;;;;;;15.74;81.79;100612.09;1655244;84;21143;-58
2021/08/20 03:38:32;;;;;;;15.23;7.53;;;;;;;15.74;81.91;100613.95;1649493;85;21152;-60
2021/08/20 03:41:00;;;;;;;12.40;7.40;;;;;;;15.73;82.01;100610.85;1690374;83;21107;-59
2021/08/20 03:43:31;;;;;;;11.03;6.58;;;;;;;15.74;82.15;100618.00;1652488;85;21084;-59
2021/08/20 03:45:59;;;;;;;13.28;7.75;;;;;;;15.75;82.29;100621.95;1652262;85;21138;-58
2021/08/20 03:48:31;;;;;;;14.87;7.12;;;;;;;15.80;82.36;100623.50;1671024;83;21049;-58
2021/08/20 03:50:59;;;;;;;16.42;6.75;;;;;;;15.83;82.33;100621.50;1691641;84;21179;-58
2021/08/20 03:53:27;;;;;;;11.88;7.55;;;;;;;15.90;82.33;100624.74;1678114;83;21155;-59
2021/08/20 03:55:54;;;;;;;13.15;7.20;;;;;;;15.98;82.20;100630.55;1675373;84;21127;-58
2021/08/20 03:58:24;;;;;;;11.20;6.87;;;;;;;16.09;82.05;100637.17;1667823;84;21823;-59
2021/08/20 04:00:55;;;;;;;15.15;7.33;;;;;;;16.22;81.90;100635.44;1684765;84;21115;-58
2021/08/20 04:03:23;;;;;;;13.65;7.55;;;;;;;16.36;81.43;100631.04;1665131;84;21554;-58
2021/08/20 04:05:52;;;;;;;12.47;6.80;;;;;;;16.50;80.97;100627.01;1685556;84;21587;-58
2021/08/20 04:08:20;;;;;;;13.93;7.08;;;;;;;16.66;80.24;100634.15;1675560;82;21098;-58
2021/08/20 04:11:11;;;;;;;13.62;7.22;;;;;;;16.78;79.63;100628.45;1681653;84;21255;-59
2021/08/20 04:14:02;;;;;;;19.42;7.72;;;;;;;16.88;78.76;100626.41;1684785;83;21099;-60
2021/08/20 04:16:31;;;;;;;14.83;6.95;;;;;;;16.96;78.36;100641.33;1677139;84;21110;-59
2021/08/20 04:18:59;;;;;;;14.47;6.72;;;;;;;17.07;77.84;100648.30;1678117;84;21063;-59
2021/08/20 04:21:26;;;;;;;14.07;6.80;;;;;;;17.16;77.37;100643.66;1674566;84;21140;-59
2021/08/20 04:23:57;;;;;;;10.93;6.28;;;;;;;17.26;76.47;100643.05;1673813;83;21832;-59
2021/08/20 04:26:24;;;;;;;14.18;7.00;;;;;;;17.32;75.94;100647.59;1679300;84;21036;-58
2021/08/20 04:28:55;;;;;;;13.80;6.85;;;;;;;17.43;75.40;100641.47;1679912;84;21155;-59
2021/08/20 04:31:27;;;;;;;13.88;6.10;;;;;;;17.54;74.92;100645.29;1680191;83;21084;-59
2021/08/20 04:34:16;;;;;;;12.43;5.80;;;;;;;17.65;74.21;100651.35;1670035;84;21616;-58
2021/08/20 04:36:47;;;;;;;16.27;6.12;;;;;;;17.73;73.02;100643.09;1666698;84;21637;-59
2021/08/20 04:39:28;;;;;;;12.82;5.75;;;;;;;17.81;72.24;100638.52;1607543;85;21050;-59
2021/08/20 04:42:04;;;;;;;13.55;6.17;;;;;;;17.93;71.77;100648.17;1651010;85;21530;-59
2021/08/20 04:44:35;;;;;;;11.15;5.83;;;;;;;18.06;70.90;100650.95;1680179;83;21077;-58
2021/08/20 04:47:10;;;;;;;10.63;5.60;;;;;;;18.15;70.71;100647.59;1670710;84;21167;-61
2021/08/20 04:49:39;;;;;;;9.68;6.40;;;;;;;18.29;69.58;100647.52;1656335;84;22677;-57
2021/08/20 04:52:10;;;;;;;11.53;5.72;;;;;;;18.43;69.02;100647.91;1660246;85;21096;-59
2021/08/20 04:54:57;;;;;;;10.25;5.90;;;;;;;18.56;67.96;100645.20;1598335;87;21091;-57
2021/08/20 04:57:25;;;;;;;9.63;5.97;;;;;;;18.68;67.37;100648.00;1601729;87;21113;-59
2021/08/20 04:59:53;;;;;;;14.28;5.78;;;;;;;18.74;66.79;100643.52;1618942;85;21130;-59
2021/08/20 05:02:20;;;;;;;15.65;5.70;;;;;;;18.85;65.92;100637.31;1671917;83;21148;-60
2021/08/20 05:04:47;;;;;;;11.10;5.75;;;;;;;18.94;65.80;100628.48;1684225;83;21127;-58
2021/08/20 05:07:17;;;;;;;11.50;5.35;;;;;;;19.05;65.71;100630.45;1678292;83;21087;-57
2021/08/20 05:09:46;;;;;;;9.20;5.85;;;;;;;19.11;64.34;100643.59;1675470;84;21447;-57
2021/08/20 05:12:13;;;;;;;15.23;5.83;;;;;;;19.16;64.25;100637.35;1689905;84;21066;-57
2021/08/20 05:14:40;;;;;;;10.15;5.40;;;;;;;19.24;64.06;100631.83;1685400;83;20992;-57
2021/08/20 05:17:07;;;;;;;12.53;5.67;;;;;;;19.27;63.71;100639.75;1683456;84;21719;-58
2021/08/20 05:19:35;;;;;;;12.75;5.92;;;;;;;19.32;63.82;100641.16;1681732;84;21470;-58
2021/08/20 05:22:03;;;;;;;14.60;5.87;;;;;;;19.44;64.04;100635.30;1677063;84;21123;-59
2021/08/20 05:24:31;;;;;;;10.58;5.35;;;;;;;19.59;63.67;100635.15;1675325;83;21584;-59
2021/08/20 05:27:00;;;;;;;9.60;5.33;;;;;;;19.72;62.61;100640.02;1690073;84;21130;-59
2021/08/20 05:29:27;;;;;;;8.18;5.15;;;;;;;19.87;62.08;100648.02;1682979;83;21082;-59
2021/08/20 05:31:54;;;;;;;21.73;5.40;;;;;;;19.97;60.85;100638.18;1680352;83;21076;-59
2021/08/20 05:34:21;;;;;;;17.12;5.70;;;;;;;20.01;61.27;100656.03;1681596;83;21094;-59
2021/08/20 05:36:48;;;;;;;10.05;5.40;;;;;;;20.13;60.95;100635.64;1685683;83;21127;-58
2021/08/20 05:39:17;;;;;;;8.38;4.85;;;;;;;20.25;60.14;100649.67;1666879;83;21415;-58
2021/08/20 05:41:45;;;;;;;16.40;5.05;;;;;;;20.36;59.26;100650.68;1681484;84;21065;-59
2021/08/20 05:44:12;;;;;;;9.75;4.92;;;;;;;20.45;59.03;100655.42;1663042;83;21191;-59
2021/08/20 05:46:40;;;;;;;7.42;4.85;;;;;;;20.57;58.70;100643.55;1670732;83;21130;-59
2021/08/20 05:49:08;;;;;;;11.48;4.62;;;;;;;20.72;58.09;100645.53;1678493;83;21125;-58
2021/08/20 05:51:35;;;;;;;13.43;5.42;;;;;;;20.85;57.49;100644.09;1687809;82;21838;-61
2021/08/20 05:54:05;;;;;;;8.93;5.40;;;;;;;20.95;57.66;100647.45;1687447;83;21067;-59
2021/08/20 05:56:32;;;;;;;9.70;5.20;;;;;;;21.09;56.95;100662.16;1690966;83;21108;-59
2021/08/20 05:58:59;;;;;;;10.50;5.15;;;;;;;21.19;55.56;100652.74;1699686;82;21445;-60
2021/08/20 06:01:29;;;;;;;8.25;5.00;;;;;;;21.25;55.58;100644.56;1683671;84;21057;-60
2021/08/20 06:03:57;;;;;;;8.38;4.95;;;;;;;21.31;55.04;100653.59;1688801;83;21183;-60
2021/08/20 06:06:29;;;;;;;15.03;4.90;;;;;;;21.41;55.17;100658.68;1676763;83;21139;-59
2021/08/20 06:08:57;;;;;;;14.68;5.47;;;;;;;21.56;55.13;100646.98;1684366;83;21083;-59
2021/08/20 06:11:24;;;;;;;12.98;4.83;;;;;;;21.79;54.79;100637.92;1680654;83;21045;-59
2021/08/20 06:13:54;;;;;;;9.00;5.28;;;;;;;22.00;54.36;100641.55;1677656;83;21584;-58
2021/08/20 06:16:21;;;;;;;6.17;4.45;;;;;;;22.18;52.81;100643.67;1647805;83;21145;-59
2021/08/20 06:18:49;;;;;;;9.80;4.47;;;;;;;22.26;52.44;100645.26;1674381;82;21056;-59
2021/08/20 06:21:16;;;;;;;15.40;4.75;;;;;;;22.31;51.96;100648.45;1671789;83;22363;-59
2021/08/20 06:23:45;;;;;;;11.78;4.70;;;;;;;22.40;51.99;100644.05;1673481;83;21215;-59
2021/08/20 06:26:12;;;;;;;8.98;4.70;;;;;;;22.52;51.86;100635.32;1687887;83;21155;-59
2021/08/20 06:28:39;;;;;;;15.28;5.30;;;;;;;22.65;51.07;100630.13;1672797;83;22451;-58
2021/08/20 06:31:10;;;;;;;9.08;4.95;;;;;;;22.68;51.30;100638.08;1681728;83;38449;-58
2021/08/20 06:33:37;;;;;;;9.60;5.30;;;;;;;22.82;51.63;100640.43;1678289;83;21144;-59
2021/08/20 06:36:05;;;;;;;8.08;4.60;;;;;;;22.99;51.45;100635.33;1686845;83;21128;-58
2021/08/20 06:38:32;;;;;;;9.53;5.00;;;;;;;23.13;50.52;100637.70;1678937;83;21061;-58
2021/08/20 06:40:59;;;;;;;10.70;5.15;;;;;;;23.17;49.79;100634.16;1641572;84;21038;-58
2021/08/20 06:45:58;;;;;;;10.85;4.83;;;;;;;23.25;49.98;100633.47;1684148;83;21481;-59
2021/08/20 06:48:28;;;;;;;13.35;5.60;;;;;;;23.35;49.18;100638.51;1682372;83;21400;-59
2021/08/20 06:50:55;;;;;;;9.58;4.90;;;;;;;23.46;49.53;100621.11;1669023;83;21086;-59
2021/08/20 06:53:22;;;;;;;12.28;5.08;;;;;;;23.53;48.81;100646.01;1686791;83;21136;-60
2021/08/20 06:55:50;;;;;;;12.20;4.62;;;;;;;23.51;48.90;100629.75;1670622;83;21090;-58
2021/08/20 06:58:17;;;;;;;12.53;5.17;;;;;;;23.56;49.08;100645.75;1681591;83;21084;-58
2021/08/20 07:00:44;;;;;;;7.55;4.85;;;;;;;23.67;49.38;100626.45;1682582;82;21067;-59
2021/08/20 07:03:11;;;;;;;11.53;4.92;;;;;;;23.84;48.77;100634.97;1678816;83;21083;-59
2021/08/20 07:05:39;;;;;;;14.18;5.58;;;;;;;23.98;48.20;100635.89;1676284;83;21609;-59
2021/08/20 07:08:08;;;;;;;7.55;4.83;;;;;;;24.09;47.97;100640.91;1678674;83;21673;-59
2021/08/20 07:10:36;;;;;;;13.48;4.72;;;;;;;24.18;47.41;100636.80;1671555;83;21310;-58
2021/08/20 07:13:03;;;;;;;8.88;4.65;;;;;;;24.31;46.45;100637.85;1677124;82;21622;-58
2021/08/20 07:15:30;;;;;;;11.22;4.67;;;;;;;24.41;45.59;100661.13;1682149;82;21161;-58
2021/08/20 07:17:58;;;;;;;8.25;4.70;;;;;;;24.38;45.62;100638.62;1680093;82;21843;-59
2021/08/20 07:20:27;;;;;;;8.00;4.75;;;;;;;24.37;45.50;100633.67;1630909;84;22101;-61
2021/08/20 07:22:54;;;;;;;7.60;4.80;;;;;;;24.40;45.40;100627.02;1682801;83;21075;-57
2021/08/20 07:25:21;;;;;;;7.35;4.70;;;;;;;24.51;45.66;100621.38;1687149;83;21124;-59
2021/08/20 07:27:48;;;;;;;11.22;4.95;;;;;;;24.58;45.30;100621.66;1678937;83;21194;-58
2021/08/20 07:30:15;;;;;;;14.85;5.20;;;;;;;24.62;45.76;100625.81;1672553;83;21843;-59
2021/08/20 07:32:45;;;;;;;14.47;4.33;;;;;;;24.77;44.31;100628.97;1684219;83;21127;-59
2021/08/20 07:35:12;;;;;;;13.08;4.80;;;;;;;24.83;43.52;100637.95;1687986;82;21360;-59
2021/08/20 07:37:40;;;;;;;11.50;4.45;;;;;;;24.93;44.20;100617.35;1680676;83;21124;-59
2021/08/20 07:40:10;;;;;;;11.68;4.90;;;;;;;24.88;43.11;100626.05;1686852;83;21671;-62
2021/08/20 07:42:38;;;;;;;8.78;4.70;;;;;;;24.78;43.44;100637.55;1676312;83;21115;-61
2021/08/20 07:45:08;;;;;;;7.22;4.25;;;;;;;24.78;44.06;100634.81;1676631;83;21150;-62
2021/08/20 07:47:50;;;;;;;10.00;4.55;;;;;;;24.77;43.89;100638.56;1682400;83;21096;-59
2021/08/20 07:50:17;;;;;;;11.70;4.95;;;;;;;24.81;43.98;100616.69;1681271;82;21100;-62
2021/08/20 07:52:45;;;;;;;11.63;5.10;;;;;;;24.84;44.43;100624.60;1674210;83;21058;-60
2021/08/20 07:55:13;;;;;;;6.33;4.50;;;;;;;24.93;43.80;100633.80;1665840;83;22320;-63
2021/08/20 07:57:50;;;;;;;6.40;4.75;;;;;;;24.99;44.12;100633.22;1671285;83;21048;-60
2021/08/20 08:00:26;;;;;;;15.60;4.87;;;;;;;25.09;43.75;100630.93;1677993;83;21542;-60
2021/08/20 08:02:53;;;;;;;8.10;4.50;;;;;;;25.16;43.10;100621.95;1671049;83;21183;-62
2021/08/20 08:05:21;;;;;;;11.90;4.95;;;;;;;25.20;43.23;100629.38;1678146;83;21135;-61
2021/08/20 08:07:48;;;;;;;10.58;5.05;;;;;;;25.26;42.96;100625.12;1682630;83;21876;-58
2021/08/20 08:10:16;;;;;;;8.05;4.60;;;;;;;25.37;42.87;100637.77;1688103;83;22638;-58
2021/08/20 08:12:43;;;;;;;6.30;4.40;;;;;;;25.40;42.54;100630.11;1672741;82;22431;-58
2021/08/20 08:15:10;;;;;;;8.48;4.00;;;;;;;25.44;42.43;100620.54;1688998;82;21172;-58
2021/08/20 08:17:39;;;;;;;9.10;4.65;;;;;;;25.52;41.57;100647.25;1669455;83;21525;-57
2021/08/20 08:20:10;;;;;;;10.03;4.33;;;;;;;25.48;41.89;100628.50;1691032;82;21145;-57
2021/08/20 08:22:37;;;;;;;10.95;4.17;;;;;;;25.44;41.62;100628.77;1680514;83;21066;-57
2021/08/20 08:25:07;;;;;;;5.80;3.80;;;;;;;25.44;40.66;100641.13;1673870;83;21105;-58
2021/08/20 08:27:51;;;;;;;7.65;4.05;;;;;;;25.42;40.39;100660.12;1675704;83;21022;-58
2021/08/20 08:30:18;;;;;;;11.03;4.67;;;;;;;25.39;40.27;100636.61;1656413;84;21124;-59
2021/08/20 08:32:45;;;;;;;9.25;4.30;;;;;;;25.40;41.30;100623.25;1666329;83;21804;-58
2021/08/20 08:35:11;;;;;;;6.70;4.08;;;;;;;25.44;41.08;100632.89;1678197;83;21132;-59
2021/08/20 08:37:39;;;;;;;4.40;3.22;;;;;;;25.45;39.17;100618.15;1685078;83;21112;-58
2021/08/20 08:40:08;;;;;;;6.00;3.30;;;;;;;25.42;38.99;100633.56;1692033;83;21143;-58
2021/08/20 08:42:36;;;;;;;8.70;3.47;;;;;;;25.38;38.91;100640.37;1695057;82;21604;-58
2021/08/20 08:45:04;;;;;;;23.45;4.15;;;;;;;25.34;39.27;100618.88;1667620;83;21128;-58
2021/08/20 08:47:34;;;;;;;6.10;3.47;;;;;;;25.40;39.91;100660.29;1647171;84;21629;-57
2021/08/20 08:50:06;;;;;;;10.03;3.52;;;;;;;25.46;39.23;100639.09;1620689;86;21229;-57
2021/08/20 08:52:34;;;;;;;27.98;4.28;;;;;;;25.51;39.00;100644.64;1684982;83;21070;-57
2021/08/20 08:55:03;;;;;;;12.37;3.80;;;;;;;25.50;39.07;100647.04;1682420;83;21243;-57
2021/08/20 08:57:31;;;;;;;9.45;3.58;;;;;;;25.57;39.12;100623.47;1681406;83;21091;-56
2021/08/20 08:59:58;;;;;;;14.18;3.77;;;;;;;25.56;38.79;100627.23;1678523;83;21343;-56
2021/08/20 09:02:26;;;;;;;4.67;3.25;;;;;;;25.56;39.35;100628.61;1684130;83;21154;-56
2021/08/20 09:04:59;;;;;;;12.00;3.70;;;;;;;25.60;39.12;100643.73;1685821;83;21088;-56
2021/08/20 09:07:27;;;;;;;12.37;3.75;;;;;;;25.64;39.30;100647.89;1659878;83;21303;-56
2021/08/20 09:10:23;;;;;;;7.72;3.47;;;;;;;25.67;39.85;100647.58;1671739;83;21168;-57
2021/08/20 09:13:02;;;;;;;14.07;3.50;;;;;;;25.62;39.67;100644.44;1685364;83;21042;-57
2021/08/20 09:15:33;;;;;;;7.15;3.98;;;;;;;25.59;39.62;100639.27;1662554;84;22499;-58
2021/08/20 09:18:02;;;;;;;6.55;4.03;;;;;;;25.59;40.32;100633.78;1666490;82;21120;-56
2021/08/20 09:20:32;;;;;;;10.90;3.45;;;;;;;25.66;39.75;100635.40;1662650;83;21139;-57
2021/08/20 09:23:02;;;;;;;8.25;3.30;;;;;;;25.71;39.32;100644.02;1675289;83;21484;-58
2021/08/20 09:25:39;;;;;;;6.17;3.80;;;;;;;25.66;39.54;100669.19;1687945;83;21518;-56
2021/08/20 09:28:27;;;;;;;7.55;3.98;;;;;;;25.67;39.92;100647.58;1679704;83;21084;-56
2021/08/20 09:31:01;;;;;;;7.97;3.95;;;;;;;25.80;40.13;100636.73;1674620;83;21011;-57
2021/08/20 09:33:37;;;;;;;13.43;4.10;;;;;;;25.91;39.17;100647.99;1675929;83;21477;-57
2021/08/20 09:36:20;;;;;;;11.15;4.22;;;;;;;25.87;39.26;100653.80;1680230;83;21892;-57
2021/08/20 09:38:55;;;;;;;8.30;4.10;;;;;;;25.95;39.68;100643.91;1671816;83;21611;-55
2021/08/20 09:41:44;;;;;;;11.30;4.97;;;;;;;26.18;38.71;100649.79;1676296;83;21502;-56
2021/08/20 09:44:25;;;;;;;9.78;4.12;;;;;;;26.36;38.29;100665.39;1668627;83;20981;-56
2021/08/20 09:46:55;;;;;;;9.48;4.00;;;;;;;26.52;38.37;100666.90;1666765;83;20962;-59
2021/08/20 09:49:28;;;;;;;7.87;3.95;;;;;;;26.64;38.46;100648.75;1673452;82;21725;-56
2021/08/20 09:51:56;;;;;;;7.30;4.17;;;;;;;26.87;38.18;100648.61;1684285;83;21135;-57
2021/08/20 09:54:26;;;;;;;6.90;4.00;;;;;;;27.07;37.59;100663.46;1669153;83;21143;-57
2021/08/20 09:56:53;;;;;;;10.32;4.33;;;;;;;27.02;37.49;100665.85;1688047;82;21088;-57
2021/08/20 09:59:20;;;;;;;6.08;4.03;;;;;;;26.96;37.23;100671.48;1676869;83;22300;-57
2021/08/20 10:01:49;;;;;;;9.08;4.03;;;;;;;26.93;37.44;100651.72;1679222;83;22157;-56
2021/08/20 10:04:17;;;;;;;8.75;3.95;;;;;;;26.96;37.37;100651.39;1686893;83;20994;-57
2021/08/20 10:06:47;;;;;;;11.20;4.30;;;;;;;27.02;37.14;100679.61;1687211;83;20900;-59
2021/08/20 10:09:17;;;;;;;6.15;4.28;;;;;;;26.92;36.80;100674.75;1680764;83;21120;-57
2021/08/20 10:11:52;;;;;;;6.78;4.10;;;;;;;26.73;37.21;100672.54;1681715;83;21030;-57
2021/08/20 10:14:23;;;;;;;9.23;4.10;;;;;;;26.69;37.46;100676.64;1681975;83;21121;-57
2021/08/20 10:16:50;;;;;;;6.50;3.58;;;;;;;26.70;37.04;100665.47;1670038;83;20974;-57
2021/08/20 10:19:17;;;;;;;13.30;4.45;;;;;;;26.67;36.84;100662.20;1671243;83;21039;-58
2021/08/20 10:21:44;;;;;;;9.25;3.37;;;;;;;26.63;37.26;100660.77;1677956;83;22024;-56
2021/08/20 10:24:17;;;;;;;4.87;3.33;;;;;;;26.66;36.75;100661.84;1671979;83;21628;-57
2021/08/20 10:26:51;;;;;;;9.18;3.75;;;;;;;26.62;36.41;100668.67;1670664;83;21822;-56
2021/08/20 10:29:21;;;;;;;4.70;3.70;;;;;;;26.52;37.26;100660.03;1681146;83;21103;-57
2021/08/20 10:31:48;;;;;;;10.20;4.08;;;;;;;26.55;37.53;100647.33;1672940;83;21802;-56
2021/08/20 10:34:33;;;;;;;6.28;3.65;;;;;;;26.76;37.62;100650.21;1670777;83;21159;-59
2021/08/20 10:37:17;;;;;;;6.58;3.70;;;;;;;26.93;37.42;100642.09;1680117;83;21513;-57
2021/08/20 10:39:47;;;;;;;7.33;3.92;;;;;;;26.94;37.30;100649.31;1663310;83;21123;-58
2021/08/20 10:42:19;;;;;;;10.32;4.20;;;;;;;26.84;37.66;100661.25;1636493;84;21088;-57
2021/08/20 10:44:53;;;;;;;6.28;3.40;;;;;;;26.80;37.58;100683.23;1603285;86;21271;-58
2021/08/20 10:47:25;;;;;;;6.20;3.87;;;;;;;26.71;37.53;100654.81;1675034;83;21764;-58
2021/08/20 10:50:17;;;;;;;4.78;3.65;;;;;;;26.63;37.93;100658.02;1686443;83;21601;-57
2021/08/20 10:52:51;;;;;;;10.88;3.85;;;;;;;26.62;38.66;100650.80;1673805;83;21751;-57
2021/08/20 10:55:30;;;;;;;9.18;3.77;;;;;;;26.66;38.56;100641.23;1664089;83;21730;-56
2021/08/20 10:58:02;;;;;;;10.35;3.67;;;;;;;26.74;38.98;100636.61;1687334;83;21561;-58
2021/08/20 11:00:32;;;;;;;12.10;3.90;;;;;;;26.79;38.76;100640.26;1679333;83;21146;-57
2021/08/20 11:03:06;;;;;;;5.47;3.60;;;;;;;26.72;38.74;100654.31;1675250;83;21370;-57
2021/08/20 11:05:45;;;;;;;13.98;3.58;;;;;;;26.64;38.85;100644.13;1684229;83;21855;-59
2021/08/20 11:08:32;;;;;;;11.53;4.25;;;;;;;26.58;39.10;100687.39;1676531;83;21513;-56
2021/08/20 11:11:01;;;;;;;9.73;4.35;;;;;;;26.53;38.99;100631.52;1679329;83;21148;-57
2021/08/20 11:13:30;;;;;;;6.45;3.90;;;;;;;26.65;38.04;100618.88;1682604;83;21140;-56
2021/08/20 11:15:58;;;;;;;10.65;3.40;;;;;;;26.76;37.84;100639.21;1682928;83;21070;-57
2021/08/20 11:18:46;;;;;;;9.15;3.70;;;;;;;26.80;37.72;100631.52;1681710;83;22507;-57
2021/08/20 11:21:45;;;;;;;4.83;2.95;;;;;;;26.79;37.56;100611.38;1677142;83;21614;-57
2021/08/20 11:24:18;;;;;;;7.15;3.27;;;;;;;26.75;37.50;100633.36;1678070;82;21931;-56
2021/08/20 11:26:45;;;;;;;6.78;2.85;;;;;;;26.48;36.79;100633.89;1653927;84;21122;-57
2021/08/20 11:29:16;;;;;;;5.85;3.10;;;;;;;26.29;36.56;100633.56;1660437;83;21070;-59
2021/08/20 11:31:44;;;;;;;7.58;2.92;;;;;;;26.25;37.30;100647.27;1663987;83;21359;-60
2021/08/20 11:34:11;;;;;;;6.62;3.42;;;;;;;26.28;38.03;100608.48;1676589;83;21125;-60